sensor_id;sensor_type;location;lat;lon;timestamp;P1;durP1;ratioP1;P2;durP2;ratioP2
60054;SDS011;45930;53.514;55.904;2022-09-01T00:00:47;15.07;;;11.52;;
60054;SDS011;45930;53.514;55.904;2022-09-01T00:01:49;24.50;;;12.27;;
60054;SDS011;45930;53.514;55.904;2022-09-01T00:02:51;19.15;;;12.20;;
60054;SDS011;45930;53.514;55.904;2022-09-01T00:03:53;17.73;;;12.23;;
60054;SDS011;45930;53.514;55.904;2022-09-01T00:04:55;19.50;;;11.95;;
60054;SDS011;45930;53.514;55.904;2022-09-01T00:05:59;15.93;;;11.35;;
60054;SDS011;45930;53.514;55.904;2022-09-01T00:07:00;19.58;;;12.65;;
60054;SDS011;45930;53.514;55.904;2022-09-01T00:08:00;20.00;;;11.73;;
60054;SDS011;45930;53.514;55.904;2022-09-01T00:09:03;18.75;;;11.13;;
60054;SDS011;45930;53.514;55.904;2022-09-01T00:10:06;16.67;;;11.77;;
60054;SDS011;45930;53.514;55.904;2022-09-01T00:11:07;17.25;;;10.85;;
60054;SDS011;45930;53.514;55.904;2022-09-01T00:12:09;19.52;;;12.60;;
60054;SDS011;45930;53.514;55.904;2022-09-01T00:13:10;14.30;;;11.65;;
60054;SDS011;45930;53.514;55.904;2022-09-01T00:14:11;15.25;;;11.95;;
60054;SDS011;45930;53.514;55.904;2022-09-01T00:15:13;18.55;;;11.73;;
60054;SDS011;45930;53.514;55.904;2022-09-01T00:16:14;19.85;;;11.20;;
60054;SDS011;45930;53.514;55.904;2022-09-01T00:17:16;19.60;;;11.63;;
60054;SDS011;45930;53.514;55.904;2022-09-01T00:18:17;16.33;;;11.60;;
60054;SDS011;45930;53.514;55.904;2022-09-01T00:19:18;16.88;;;12.13;;
60054;SDS011;45930;53.514;55.904;2022-09-01T00:20:20;18.90;;;12.68;;
60054;SDS011;45930;53.514;55.904;2022-09-01T00:21:22;21.20;;;12.18;;
60054;SDS011;45930;53.514;55.904;2022-09-01T00:22:25;19.85;;;12.07;;
60054;SDS011;45930;53.514;55.904;2022-09-01T00:23:26;15.35;;;11.05;;
60054;SDS011;45930;53.514;55.904;2022-09-01T00:24:29;16.65;;;11.77;;
60054;SDS011;45930;53.514;55.904;2022-09-01T00:25:30;18.00;;;12.05;;
60054;SDS011;45930;53.514;55.904;2022-09-01T00:26:31;15.45;;;12.13;;
60054;SDS011;45930;53.514;55.904;2022-09-01T00:27:32;20.63;;;12.00;;
60054;SDS011;45930;53.514;55.904;2022-09-01T00:28:33;17.48;;;11.48;;
60054;SDS011;45930;53.514;55.904;2022-09-01T00:29:35;16.85;;;11.30;;
60054;SDS011;45930;53.514;55.904;2022-09-01T00:30:36;17.38;;;11.85;;
60054;SDS011;45930;53.514;55.904;2022-09-01T00:31:37;22.25;;;11.75;;
60054;SDS011;45930;53.514;55.904;2022-09-01T00:32:38;14.32;;;11.80;;
60054;SDS011;45930;53.514;55.904;2022-09-01T00:33:39;16.80;;;11.55;;
60054;SDS011;45930;53.514;55.904;2022-09-01T00:34:41;16.27;;;11.35;;
60054;SDS011;45930;53.514;55.904;2022-09-01T00:35:42;17.85;;;11.85;;
60054;SDS011;45930;53.514;55.904;2022-09-01T00:36:43;18.33;;;11.77;;
60054;SDS011;45930;53.514;55.904;2022-09-01T00:37:44;18.17;;;12.13;;
60054;SDS011;45930;53.514;55.904;2022-09-01T00:38:45;19.88;;;12.70;;
60054;SDS011;45930;53.514;55.904;2022-09-01T00:39:46;15.45;;;12.00;;
60054;SDS011;45930;53.514;55.904;2022-09-01T00:40:47;17.13;;;11.95;;
60054;SDS011;45930;53.514;55.904;2022-09-01T00:41:49;15.00;;;11.82;;
60054;SDS011;45930;53.514;55.904;2022-09-01T00:42:50;13.88;;;10.93;;
60054;SDS011;45930;53.514;55.904;2022-09-01T00:43:56;16.92;;;11.57;;
60054;SDS011;45930;53.514;55.904;2022-09-01T00:45:05;17.50;;;12.32;;
60054;SDS011;45930;53.514;55.904;2022-09-01T00:46:09;19.42;;;12.43;;
60054;SDS011;45930;53.514;55.904;2022-09-01T00:47:12;14.70;;;11.43;;
60054;SDS011;45930;53.514;55.904;2022-09-01T00:48:14;23.27;;;12.10;;
60054;SDS011;45930;53.514;55.904;2022-09-01T00:49:19;19.77;;;12.43;;
60054;SDS011;45930;53.514;55.904;2022-09-01T00:50:20;18.35;;;12.20;;
60054;SDS011;45930;53.514;55.904;2022-09-01T00:51:22;14.75;;;11.27;;
60054;SDS011;45930;53.514;55.904;2022-09-01T00:52:37;16.15;;;11.77;;
60054;SDS011;45930;53.514;55.904;2022-09-01T00:54:46;20.23;;;12.65;;
60054;SDS011;45930;53.514;55.904;2022-09-01T00:55:50;16.88;;;12.90;;
60054;SDS011;45930;53.514;55.904;2022-09-01T00:56:51;17.15;;;12.18;;
60054;SDS011;45930;53.514;55.904;2022-09-01T00:57:53;23.40;;;12.38;;
60054;SDS011;45930;53.514;55.904;2022-09-01T00:58:55;22.65;;;12.15;;
60054;SDS011;45930;53.514;55.904;2022-09-01T01:00:01;21.20;;;11.40;;
60054;SDS011;45930;53.514;55.904;2022-09-01T01:01:10;22.67;;;12.40;;
60054;SDS011;45930;53.514;55.904;2022-09-01T01:02:12;21.52;;;13.05;;
60054;SDS011;45930;53.514;55.904;2022-09-01T01:03:13;22.58;;;12.50;;
60054;SDS011;45930;53.514;55.904;2022-09-01T01:04:15;19.80;;;12.90;;
60054;SDS011;45930;53.514;55.904;2022-09-01T01:05:16;19.58;;;12.60;;
60054;SDS011;45930;53.514;55.904;2022-09-01T01:06:16;21.45;;;12.45;;
60054;SDS011;45930;53.514;55.904;2022-09-01T01:07:19;26.50;;;11.80;;
60054;SDS011;45930;53.514;55.904;2022-09-01T01:08:23;16.35;;;12.30;;
60054;SDS011;45930;53.514;55.904;2022-09-01T01:09:35;19.42;;;11.40;;
60054;SDS011;45930;53.514;55.904;2022-09-01T01:10:41;18.55;;;12.25;;
60054;SDS011;45930;53.514;55.904;2022-09-01T01:11:42;26.42;;;13.10;;
60054;SDS011;45930;53.514;55.904;2022-09-01T01:12:47;74.55;;;17.23;;
60054;SDS011;45930;53.514;55.904;2022-09-01T01:13:51;19.83;;;12.43;;
60054;SDS011;45930;53.514;55.904;2022-09-01T01:14:55;18.55;;;12.52;;
60054;SDS011;45930;53.514;55.904;2022-09-01T01:15:56;17.42;;;12.13;;
60054;SDS011;45930;53.514;55.904;2022-09-01T01:16:59;19.02;;;12.75;;
60054;SDS011;45930;53.514;55.904;2022-09-01T01:18:00;17.85;;;12.30;;
60054;SDS011;45930;53.514;55.904;2022-09-01T01:19:01;20.65;;;12.77;;
60054;SDS011;45930;53.514;55.904;2022-09-01T01:20:03;21.60;;;12.52;;
60054;SDS011;45930;53.514;55.904;2022-09-01T01:21:25;22.17;;;12.52;;
60054;SDS011;45930;53.514;55.904;2022-09-01T01:22:55;19.50;;;12.85;;
60054;SDS011;45930;53.514;55.904;2022-09-01T01:25:24;23.80;;;13.43;;
60054;SDS011;45930;53.514;55.904;2022-09-01T01:26:25;21.08;;;12.45;;
60054;SDS011;45930;53.514;55.904;2022-09-01T01:27:30;19.90;;;13.02;;
60054;SDS011;45930;53.514;55.904;2022-09-01T01:28:34;34.03;;;13.38;;
60054;SDS011;45930;53.514;55.904;2022-09-01T01:29:37;28.30;;;13.18;;
60054;SDS011;45930;53.514;55.904;2022-09-01T01:30:41;20.13;;;13.15;;
60054;SDS011;45930;53.514;55.904;2022-09-01T01:31:44;162.63;;;27.20;;
60054;SDS011;45930;53.514;55.904;2022-09-01T01:32:49;29.80;;;12.85;;
60054;SDS011;45930;53.514;55.904;2022-09-01T01:33:52;24.42;;;13.18;;
60054;SDS011;45930;53.514;55.904;2022-09-01T01:34:54;20.58;;;13.10;;
60054;SDS011;45930;53.514;55.904;2022-09-01T01:35:55;21.60;;;13.63;;
60054;SDS011;45930;53.514;55.904;2022-09-01T01:36:56;28.52;;;14.15;;
60054;SDS011;45930;53.514;55.904;2022-09-01T01:38:00;22.80;;;13.10;;
60054;SDS011;45930;53.514;55.904;2022-09-01T01:39:09;21.15;;;13.30;;
60054;SDS011;45930;53.514;55.904;2022-09-01T01:40:16;20.10;;;13.32;;
60054;SDS011;45930;53.514;55.904;2022-09-01T01:41:19;23.25;;;14.20;;
60054;SDS011;45930;53.514;55.904;2022-09-01T01:42:21;19.70;;;13.40;;
60054;SDS011;45930;53.514;55.904;2022-09-01T01:43:23;24.23;;;14.55;;
60054;SDS011;45930;53.514;55.904;2022-09-01T01:44:25;20.98;;;14.90;;
60054;SDS011;45930;53.514;55.904;2022-09-01T01:45:30;18.52;;;13.40;;
60054;SDS011;45930;53.514;55.904;2022-09-01T01:46:34;27.77;;;14.38;;
60054;SDS011;45930;53.514;55.904;2022-09-01T01:47:36;20.75;;;13.95;;
60054;SDS011;45930;53.514;55.904;2022-09-01T01:48:38;23.80;;;14.65;;
60054;SDS011;45930;53.514;55.904;2022-09-01T01:49:40;20.40;;;15.43;;
60054;SDS011;45930;53.514;55.904;2022-09-01T01:50:44;22.10;;;14.45;;
60054;SDS011;45930;53.514;55.904;2022-09-01T01:51:49;22.05;;;15.57;;
60054;SDS011;45930;53.514;55.904;2022-09-01T01:52:57;22.30;;;14.73;;
60054;SDS011;45930;53.514;55.904;2022-09-01T01:53:59;21.00;;;14.75;;
60054;SDS011;45930;53.514;55.904;2022-09-01T01:55:05;22.55;;;13.95;;
60054;SDS011;45930;53.514;55.904;2022-09-01T01:56:12;19.83;;;14.30;;
60054;SDS011;45930;53.514;55.904;2022-09-01T01:57:13;22.88;;;14.60;;
60054;SDS011;45930;53.514;55.904;2022-09-01T01:58:17;23.52;;;14.82;;
60054;SDS011;45930;53.514;55.904;2022-09-01T01:59:20;28.85;;;15.63;;
60054;SDS011;45930;53.514;55.904;2022-09-01T02:00:25;22.38;;;14.02;;
60054;SDS011;45930;53.514;55.904;2022-09-01T02:01:28;23.55;;;15.20;;
60054;SDS011;45930;53.514;55.904;2022-09-01T02:02:31;43.55;;;16.70;;
60054;SDS011;45930;53.514;55.904;2022-09-01T02:03:32;25.05;;;15.75;;
60054;SDS011;45930;53.514;55.904;2022-09-01T02:09:08;30.13;;;17.88;;
60054;SDS011;45930;53.514;55.904;2022-09-01T02:10:09;30.55;;;17.77;;
60054;SDS011;45930;53.514;55.904;2022-09-01T02:11:10;30.17;;;14.75;;
60054;SDS011;45930;53.514;55.904;2022-09-01T02:12:12;29.92;;;15.23;;
60054;SDS011;45930;53.514;55.904;2022-09-01T02:13:14;31.98;;;20.75;;
60054;SDS011;45930;53.514;55.904;2022-09-01T02:14:17;32.70;;;18.92;;
60054;SDS011;45930;53.514;55.904;2022-09-01T02:15:20;22.80;;;14.77;;
60054;SDS011;45930;53.514;55.904;2022-09-01T02:16:22;31.83;;;15.30;;
60054;SDS011;45930;53.514;55.904;2022-09-01T02:17:24;20.75;;;14.82;;
60054;SDS011;45930;53.514;55.904;2022-09-01T02:18:27;24.90;;;15.38;;
60054;SDS011;45930;53.514;55.904;2022-09-01T02:19:34;30.65;;;15.68;;
60054;SDS011;45930;53.514;55.904;2022-09-01T02:20:43;18.30;;;14.07;;
60054;SDS011;45930;53.514;55.904;2022-09-01T02:21:48;26.42;;;15.20;;
60054;SDS011;45930;53.514;55.904;2022-09-01T02:22:55;21.50;;;14.32;;
60054;SDS011;45930;53.514;55.904;2022-09-01T02:23:57;23.30;;;14.43;;
60054;SDS011;45930;53.514;55.904;2022-09-01T02:25:01;24.92;;;15.90;;
60054;SDS011;45930;53.514;55.904;2022-09-01T02:26:02;25.17;;;14.30;;
60054;SDS011;45930;53.514;55.904;2022-09-01T02:27:04;26.27;;;14.98;;
60054;SDS011;45930;53.514;55.904;2022-09-01T02:28:05;27.25;;;15.32;;
60054;SDS011;45930;53.514;55.904;2022-09-01T02:29:10;23.73;;;14.57;;
60054;SDS011;45930;53.514;55.904;2022-09-01T02:30:20;24.55;;;15.85;;
60054;SDS011;45930;53.514;55.904;2022-09-01T02:31:22;23.23;;;16.45;;
60054;SDS011;45930;53.514;55.904;2022-09-01T02:32:23;26.55;;;14.90;;
60054;SDS011;45930;53.514;55.904;2022-09-01T02:33:24;33.33;;;16.10;;
60054;SDS011;45930;53.514;55.904;2022-09-01T02:34:27;87.80;;;19.98;;
60054;SDS011;45930;53.514;55.904;2022-09-01T02:35:28;30.92;;;15.15;;
60054;SDS011;45930;53.514;55.904;2022-09-01T02:36:31;28.90;;;15.57;;
60054;SDS011;45930;53.514;55.904;2022-09-01T02:42:07;42.42;;;16.83;;
60054;SDS011;45930;53.514;55.904;2022-09-01T02:43:08;76.55;;;19.98;;
60054;SDS011;45930;53.514;55.904;2022-09-01T02:44:11;62.70;;;21.05;;
60054;SDS011;45930;53.514;55.904;2022-09-01T02:45:12;41.72;;;16.83;;
60054;SDS011;45930;53.514;55.904;2022-09-01T02:46:15;39.13;;;17.25;;
60054;SDS011;45930;53.514;55.904;2022-09-01T02:47:16;41.90;;;18.20;;
60054;SDS011;45930;53.514;55.904;2022-09-01T02:48:16;36.45;;;17.70;;
60054;SDS011;45930;53.514;55.904;2022-09-01T02:49:19;34.97;;;17.65;;
60054;SDS011;45930;53.514;55.904;2022-09-01T02:50:27;26.48;;;17.25;;
60054;SDS011;45930;53.514;55.904;2022-09-01T02:51:28;35.95;;;17.92;;
60054;SDS011;45930;53.514;55.904;2022-09-01T02:52:29;28.88;;;17.02;;
60054;SDS011;45930;53.514;55.904;2022-09-01T02:53:35;38.83;;;19.38;;
60054;SDS011;45930;53.514;55.904;2022-09-01T02:54:38;62.92;;;32.17;;
60054;SDS011;45930;53.514;55.904;2022-09-01T02:55:39;58.75;;;34.22;;
60054;SDS011;45930;53.514;55.904;2022-09-01T02:56:40;72.47;;;39.88;;
60054;SDS011;45930;53.514;55.904;2022-09-01T02:57:40;79.38;;;42.75;;
60054;SDS011;45930;53.514;55.904;2022-09-01T02:58:42;78.50;;;40.70;;
60054;SDS011;45930;53.514;55.904;2022-09-01T02:59:47;86.30;;;45.95;;
60054;SDS011;45930;53.514;55.904;2022-09-01T03:00:50;89.32;;;48.47;;
60054;SDS011;45930;53.514;55.904;2022-09-01T03:01:53;87.25;;;45.25;;
60054;SDS011;45930;53.514;55.904;2022-09-01T03:02:57;88.40;;;46.15;;
60054;SDS011;45930;53.514;55.904;2022-09-01T03:04:00;77.97;;;43.03;;
60054;SDS011;45930;53.514;55.904;2022-09-01T03:05:03;68.20;;;37.55;;
60054;SDS011;45930;53.514;55.904;2022-09-01T03:06:06;67.85;;;36.20;;
60054;SDS011;45930;53.514;55.904;2022-09-01T03:07:09;64.07;;;35.00;;
60054;SDS011;45930;53.514;55.904;2022-09-01T03:08:10;55.72;;;32.78;;
60054;SDS011;45930;53.514;55.904;2022-09-01T03:09:15;55.25;;;31.23;;
60054;SDS011;45930;53.514;55.904;2022-09-01T03:10:17;65.30;;;31.35;;
60054;SDS011;45930;53.514;55.904;2022-09-01T03:11:21;60.03;;;31.65;;
60054;SDS011;45930;53.514;55.904;2022-09-01T03:12:23;58.65;;;30.90;;
60054;SDS011;45930;53.514;55.904;2022-09-01T03:13:24;52.40;;;28.35;;
60054;SDS011;45930;53.514;55.904;2022-09-01T03:14:25;45.65;;;25.30;;
60054;SDS011;45930;53.514;55.904;2022-09-01T03:15:26;42.92;;;24.05;;
60054;SDS011;45930;53.514;55.904;2022-09-01T03:16:27;35.47;;;19.30;;
60054;SDS011;45930;53.514;55.904;2022-09-01T03:17:32;34.13;;;18.70;;
60054;SDS011;45930;53.514;55.904;2022-09-01T03:18:34;29.95;;;18.20;;
60054;SDS011;45930;53.514;55.904;2022-09-01T03:19:36;31.30;;;18.73;;
60054;SDS011;45930;53.514;55.904;2022-09-01T03:20:41;29.83;;;17.75;;
60054;SDS011;45930;53.514;55.904;2022-09-01T03:21:45;33.75;;;17.90;;
60054;SDS011;45930;53.514;55.904;2022-09-01T03:22:48;32.53;;;16.67;;
60054;SDS011;45930;53.514;55.904;2022-09-01T03:23:50;28.05;;;16.83;;
60054;SDS011;45930;53.514;55.904;2022-09-01T03:24:51;33.65;;;17.52;;
60054;SDS011;45930;53.514;55.904;2022-09-01T03:25:54;28.83;;;17.10;;
60054;SDS011;45930;53.514;55.904;2022-09-01T03:26:56;27.58;;;16.35;;
60054;SDS011;45930;53.514;55.904;2022-09-01T03:27:57;30.63;;;17.45;;
60054;SDS011;45930;53.514;55.904;2022-09-01T03:29:02;29.85;;;16.67;;
60054;SDS011;45930;53.514;55.904;2022-09-01T03:30:04;30.05;;;16.65;;
60054;SDS011;45930;53.514;55.904;2022-09-01T03:31:06;27.67;;;16.33;;
60054;SDS011;45930;53.514;55.904;2022-09-01T03:32:08;25.27;;;16.23;;
60054;SDS011;45930;53.514;55.904;2022-09-01T03:33:10;30.52;;;17.83;;
60054;SDS011;45930;53.514;55.904;2022-09-01T03:34:11;32.08;;;17.77;;
60054;SDS011;45930;53.514;55.904;2022-09-01T03:35:12;34.42;;;19.13;;
60054;SDS011;45930;53.514;55.904;2022-09-01T03:36:13;41.00;;;20.42;;
60054;SDS011;45930;53.514;55.904;2022-09-01T03:37:19;58.65;;;21.02;;
60054;SDS011;45930;53.514;55.904;2022-09-01T03:38:23;33.90;;;19.70;;
60054;SDS011;45930;53.514;55.904;2022-09-01T03:39:24;33.60;;;19.10;;
60054;SDS011;45930;53.514;55.904;2022-09-01T03:40:27;41.78;;;18.70;;
60054;SDS011;45930;53.514;55.904;2022-09-01T03:41:31;40.08;;;22.00;;
60054;SDS011;45930;53.514;55.904;2022-09-01T03:42:32;40.90;;;20.20;;
60054;SDS011;45930;53.514;55.904;2022-09-01T03:43:33;35.20;;;19.65;;
60054;SDS011;45930;53.514;55.904;2022-09-01T03:44:34;37.70;;;21.63;;
60054;SDS011;45930;53.514;55.904;2022-09-01T03:45:39;38.20;;;21.48;;
60054;SDS011;45930;53.514;55.904;2022-09-01T03:46:41;37.83;;;20.05;;
60054;SDS011;45930;53.514;55.904;2022-09-01T03:47:42;42.17;;;21.27;;
60054;SDS011;45930;53.514;55.904;2022-09-01T03:48:43;35.38;;;21.58;;
60054;SDS011;45930;53.514;55.904;2022-09-01T03:49:45;40.08;;;21.20;;
60054;SDS011;45930;53.514;55.904;2022-09-01T03:50:47;37.65;;;20.00;;
60054;SDS011;45930;53.514;55.904;2022-09-01T03:51:49;38.17;;;21.00;;
60054;SDS011;45930;53.514;55.904;2022-09-01T03:52:54;29.77;;;18.77;;
60054;SDS011;45930;53.514;55.904;2022-09-01T03:53:58;28.70;;;17.48;;
60054;SDS011;45930;53.514;55.904;2022-09-01T03:55:00;33.40;;;18.25;;
60054;SDS011;45930;53.514;55.904;2022-09-01T03:56:01;35.78;;;18.77;;
60054;SDS011;45930;53.514;55.904;2022-09-01T03:57:03;35.05;;;19.63;;
60054;SDS011;45930;53.514;55.904;2022-09-01T03:58:07;28.98;;;16.98;;
60054;SDS011;45930;53.514;55.904;2022-09-01T03:59:08;26.38;;;17.73;;
60054;SDS011;45930;53.514;55.904;2022-09-01T04:00:16;29.55;;;18.67;;
60054;SDS011;45930;53.514;55.904;2022-09-01T04:01:23;29.10;;;18.13;;
60054;SDS011;45930;53.514;55.904;2022-09-01T04:02:28;32.47;;;17.98;;
60054;SDS011;45930;53.514;55.904;2022-09-01T04:03:31;31.08;;;18.10;;
60054;SDS011;45930;53.514;55.904;2022-09-01T04:04:35;31.17;;;18.35;;
60054;SDS011;45930;53.514;55.904;2022-09-01T04:05:37;33.30;;;20.10;;
60054;SDS011;45930;53.514;55.904;2022-09-01T04:06:42;32.00;;;20.55;;
60054;SDS011;45930;53.514;55.904;2022-09-01T04:07:44;51.90;;;22.13;;
60054;SDS011;45930;53.514;55.904;2022-09-01T04:08:47;35.10;;;19.85;;
60054;SDS011;45930;53.514;55.904;2022-09-01T04:09:49;35.25;;;19.08;;
60054;SDS011;45930;53.514;55.904;2022-09-01T04:10:52;34.80;;;19.27;;
60054;SDS011;45930;53.514;55.904;2022-09-01T04:11:54;41.67;;;20.05;;
60054;SDS011;45930;53.514;55.904;2022-09-01T04:12:55;39.33;;;19.20;;
60054;SDS011;45930;53.514;55.904;2022-09-01T04:13:59;28.17;;;19.52;;
60054;SDS011;45930;53.514;55.904;2022-09-01T04:15:00;34.00;;;17.80;;
60054;SDS011;45930;53.514;55.904;2022-09-01T04:16:02;31.95;;;17.83;;
60054;SDS011;45930;53.514;55.904;2022-09-01T04:17:09;33.08;;;18.80;;
60054;SDS011;45930;53.514;55.904;2022-09-01T04:18:28;38.97;;;18.38;;
60054;SDS011;45930;53.514;55.904;2022-09-01T04:19:32;30.52;;;18.48;;
60054;SDS011;45930;53.514;55.904;2022-09-01T04:20:36;34.05;;;17.20;;
60054;SDS011;45930;53.514;55.904;2022-09-01T04:21:48;38.30;;;17.60;;
60054;SDS011;45930;53.514;55.904;2022-09-01T04:22:50;27.35;;;17.77;;
60054;SDS011;45930;53.514;55.904;2022-09-01T04:23:51;31.40;;;18.95;;
60054;SDS011;45930;53.514;55.904;2022-09-01T04:24:52;30.45;;;18.55;;
60054;SDS011;45930;53.514;55.904;2022-09-01T04:25:55;29.95;;;18.20;;
60054;SDS011;45930;53.514;55.904;2022-09-01T04:26:59;31.60;;;17.90;;
60054;SDS011;45930;53.514;55.904;2022-09-01T04:28:01;32.45;;;18.50;;
60054;SDS011;45930;53.514;55.904;2022-09-01T04:29:12;39.72;;;18.38;;
60054;SDS011;45930;53.514;55.904;2022-09-01T04:30:13;32.45;;;18.05;;
60054;SDS011;45930;53.514;55.904;2022-09-01T04:31:14;32.78;;;17.52;;
60054;SDS011;45930;53.514;55.904;2022-09-01T04:32:17;29.92;;;17.83;;
60054;SDS011;45930;53.514;55.904;2022-09-01T04:33:21;32.30;;;16.73;;
60054;SDS011;45930;53.514;55.904;2022-09-01T04:34:24;26.05;;;16.63;;
60054;SDS011;45930;53.514;55.904;2022-09-01T04:35:27;32.28;;;18.02;;
60054;SDS011;45930;53.514;55.904;2022-09-01T04:36:31;30.38;;;17.63;;
60054;SDS011;45930;53.514;55.904;2022-09-01T04:37:33;35.15;;;18.90;;
60054;SDS011;45930;53.514;55.904;2022-09-01T04:38:35;28.95;;;17.98;;
60054;SDS011;45930;53.514;55.904;2022-09-01T04:39:36;24.63;;;17.80;;
60054;SDS011;45930;53.514;55.904;2022-09-01T04:40:38;29.80;;;17.20;;
60054;SDS011;45930;53.514;55.904;2022-09-01T04:41:41;27.63;;;17.75;;
60054;SDS011;45930;53.514;55.904;2022-09-01T04:42:45;37.28;;;17.75;;
60054;SDS011;45930;53.514;55.904;2022-09-01T04:43:46;30.00;;;17.52;;
60054;SDS011;45930;53.514;55.904;2022-09-01T04:44:51;31.08;;;18.15;;
60054;SDS011;45930;53.514;55.904;2022-09-01T04:45:53;25.67;;;17.30;;
60054;SDS011;45930;53.514;55.904;2022-09-01T04:46:56;28.30;;;18.83;;
60054;SDS011;45930;53.514;55.904;2022-09-01T04:47:56;27.60;;;17.98;;
60054;SDS011;45930;53.514;55.904;2022-09-01T04:49:00;29.95;;;18.30;;
60054;SDS011;45930;53.514;55.904;2022-09-01T04:50:08;28.98;;;17.98;;
60054;SDS011;45930;53.514;55.904;2022-09-01T04:51:13;29.50;;;17.95;;
60054;SDS011;45930;53.514;55.904;2022-09-01T04:52:14;30.35;;;17.13;;
60054;SDS011;45930;53.514;55.904;2022-09-01T04:53:15;29.75;;;18.27;;
60054;SDS011;45930;53.514;55.904;2022-09-01T04:54:18;28.23;;;17.85;;
60054;SDS011;45930;53.514;55.904;2022-09-01T04:55:20;30.38;;;17.65;;
60054;SDS011;45930;53.514;55.904;2022-09-01T04:56:21;26.13;;;18.23;;
60054;SDS011;45930;53.514;55.904;2022-09-01T04:57:23;29.98;;;18.38;;
60054;SDS011;45930;53.514;55.904;2022-09-01T04:58:30;28.15;;;17.73;;
60054;SDS011;45930;53.514;55.904;2022-09-01T04:59:33;34.47;;;19.02;;
60054;SDS011;45930;53.514;55.904;2022-09-01T05:00:35;31.23;;;16.88;;
60054;SDS011;45930;53.514;55.904;2022-09-01T05:01:39;27.38;;;18.73;;
60054;SDS011;45930;53.514;55.904;2022-09-01T05:02:52;31.73;;;19.20;;
60054;SDS011;45930;53.514;55.904;2022-09-01T05:04:02;31.15;;;18.33;;
60054;SDS011;45930;53.514;55.904;2022-09-01T05:05:04;27.38;;;17.70;;
60054;SDS011;45930;53.514;55.904;2022-09-01T05:06:13;26.05;;;18.52;;
60054;SDS011;45930;53.514;55.904;2022-09-01T05:07:16;24.27;;;18.08;;
60054;SDS011;45930;53.514;55.904;2022-09-01T05:08:18;32.58;;;18.63;;
60054;SDS011;45930;53.514;55.904;2022-09-01T05:09:22;30.25;;;18.55;;
60054;SDS011;45930;53.514;55.904;2022-09-01T05:10:26;26.77;;;18.25;;
60054;SDS011;45930;53.514;55.904;2022-09-01T05:11:29;35.90;;;18.95;;
60054;SDS011;45930;53.514;55.904;2022-09-01T05:12:31;27.75;;;18.02;;
60054;SDS011;45930;53.514;55.904;2022-09-01T05:13:32;28.25;;;18.33;;
60054;SDS011;45930;53.514;55.904;2022-09-01T05:14:34;28.60;;;18.33;;
60054;SDS011;45930;53.514;55.904;2022-09-01T05:15:44;28.30;;;18.45;;
60054;SDS011;45930;53.514;55.904;2022-09-01T05:16:46;28.15;;;19.70;;
60054;SDS011;45930;53.514;55.904;2022-09-01T05:17:48;28.73;;;18.33;;
60054;SDS011;45930;53.514;55.904;2022-09-01T05:18:49;26.27;;;18.00;;
60054;SDS011;45930;53.514;55.904;2022-09-01T05:19:50;32.28;;;19.73;;
60054;SDS011;45930;53.514;55.904;2022-09-01T05:20:50;29.35;;;18.67;;
60054;SDS011;45930;53.514;55.904;2022-09-01T05:21:53;29.55;;;18.98;;
60054;SDS011;45930;53.514;55.904;2022-09-01T05:22:56;31.13;;;18.70;;
60054;SDS011;45930;53.514;55.904;2022-09-01T05:23:57;32.78;;;18.58;;
60054;SDS011;45930;53.514;55.904;2022-09-01T05:25:00;32.67;;;19.50;;
60054;SDS011;45930;53.514;55.904;2022-09-01T05:26:03;32.22;;;19.48;;
60054;SDS011;45930;53.514;55.904;2022-09-01T05:27:13;32.63;;;19.50;;
60054;SDS011;45930;53.514;55.904;2022-09-01T05:28:16;30.48;;;18.30;;
60054;SDS011;45930;53.514;55.904;2022-09-01T05:29:18;38.42;;;20.63;;
60054;SDS011;45930;53.514;55.904;2022-09-01T05:30:20;32.80;;;20.25;;
60054;SDS011;45930;53.514;55.904;2022-09-01T05:31:22;35.00;;;20.98;;
60054;SDS011;45930;53.514;55.904;2022-09-01T05:32:23;32.47;;;20.88;;
60054;SDS011;45930;53.514;55.904;2022-09-01T05:33:25;37.40;;;23.10;;
60054;SDS011;45930;53.514;55.904;2022-09-01T05:34:26;39.65;;;25.02;;
60054;SDS011;45930;53.514;55.904;2022-09-01T05:35:28;43.92;;;24.77;;
60054;SDS011;45930;53.514;55.904;2022-09-01T05:36:30;35.85;;;23.60;;
60054;SDS011;45930;53.514;55.904;2022-09-01T05:37:33;36.97;;;22.35;;
60054;SDS011;45930;53.514;55.904;2022-09-01T05:38:39;34.97;;;20.30;;
60054;SDS011;45930;53.514;55.904;2022-09-01T05:39:41;26.90;;;20.48;;
60054;SDS011;45930;53.514;55.904;2022-09-01T05:40:42;29.98;;;20.00;;
60054;SDS011;45930;53.514;55.904;2022-09-01T05:41:43;27.45;;;18.67;;
60054;SDS011;45930;53.514;55.904;2022-09-01T05:42:45;23.90;;;17.92;;
60054;SDS011;45930;53.514;55.904;2022-09-01T05:43:47;27.33;;;19.25;;
60054;SDS011;45930;53.514;55.904;2022-09-01T05:44:51;33.95;;;19.35;;
60054;SDS011;45930;53.514;55.904;2022-09-01T05:45:52;29.02;;;18.58;;
60054;SDS011;45930;53.514;55.904;2022-09-01T05:46:57;33.85;;;18.70;;
60054;SDS011;45930;53.514;55.904;2022-09-01T05:47:58;26.38;;;19.15;;
60054;SDS011;45930;53.514;55.904;2022-09-01T05:48:59;28.00;;;17.55;;
60054;SDS011;45930;53.514;55.904;2022-09-01T05:50:02;24.38;;;18.23;;
60054;SDS011;45930;53.514;55.904;2022-09-01T05:51:05;25.60;;;18.45;;
60054;SDS011;45930;53.514;55.904;2022-09-01T05:52:07;33.20;;;18.85;;
60054;SDS011;45930;53.514;55.904;2022-09-01T05:53:09;27.45;;;19.13;;
60054;SDS011;45930;53.514;55.904;2022-09-01T05:54:17;27.43;;;18.40;;
60054;SDS011;45930;53.514;55.904;2022-09-01T05:55:21;29.25;;;19.80;;
60054;SDS011;45930;53.514;55.904;2022-09-01T05:56:22;28.42;;;19.83;;
60054;SDS011;45930;53.514;55.904;2022-09-01T05:57:23;33.38;;;20.95;;
60054;SDS011;45930;53.514;55.904;2022-09-01T05:58:24;35.42;;;20.23;;
60054;SDS011;45930;53.514;55.904;2022-09-01T05:59:26;27.65;;;18.02;;
60054;SDS011;45930;53.514;55.904;2022-09-01T06:00:30;29.42;;;18.63;;
60054;SDS011;45930;53.514;55.904;2022-09-01T06:01:34;31.67;;;18.77;;
60054;SDS011;45930;53.514;55.904;2022-09-01T06:02:37;25.08;;;15.57;;
60054;SDS011;45930;53.514;55.904;2022-09-01T06:03:39;26.10;;;14.15;;
60054;SDS011;45930;53.514;55.904;2022-09-01T06:04:41;21.85;;;13.90;;
60054;SDS011;45930;53.514;55.904;2022-09-01T06:05:43;22.60;;;13.48;;
60054;SDS011;45930;53.514;55.904;2022-09-01T06:06:51;22.50;;;13.10;;
60054;SDS011;45930;53.514;55.904;2022-09-01T06:07:56;23.58;;;13.50;;
60054;SDS011;45930;53.514;55.904;2022-09-01T06:08:57;22.48;;;12.95;;
60054;SDS011;45930;53.514;55.904;2022-09-01T06:09:59;24.05;;;12.55;;
60054;SDS011;45930;53.514;55.904;2022-09-01T06:11:00;21.55;;;12.95;;
60054;SDS011;45930;53.514;55.904;2022-09-01T06:12:01;21.92;;;13.80;;
60054;SDS011;45930;53.514;55.904;2022-09-01T06:13:02;21.83;;;11.85;;
60054;SDS011;45930;53.514;55.904;2022-09-01T06:14:05;22.58;;;12.43;;
60054;SDS011;45930;53.514;55.904;2022-09-01T06:15:07;24.50;;;12.82;;